sensor_id;sensor_type;location;lat;lon;timestamp;temperature;humidity
11399;DHT22;5755;48.116;11.608;2024-03-25T00:01:50;4.80;94.00
11399;DHT22;5755;48.116;11.608;2024-03-25T00:04:18;4.80;93.80
11399;DHT22;5755;48.116;11.608;2024-03-25T00:06:46;4.80;94.20
11399;DHT22;5755;48.116;11.608;2024-03-25T00:09:13;4.80;94.00
11399;DHT22;5755;48.116;11.608;2024-03-25T00:11:40;4.60;94.50
11399;DHT22;5755;48.116;11.608;2024-03-25T00:14:07;4.70;94.20
11399;DHT22;5755;48.116;11.608;2024-03-25T00:16:34;4.70;94.50
11399;DHT22;5755;48.116;11.608;2024-03-25T00:19:01;4.80;93.90
11399;DHT22;5755;48.116;11.608;2024-03-25T00:21:28;4.90;93.50
11399;DHT22;5755;48.116;11.608;2024-03-25T00:23:55;4.90;93.20
11399;DHT22;5755;48.116;11.608;2024-03-25T00:26:22;4.90;92.90
11399;DHT22;5755;48.116;11.608;2024-03-25T00:28:49;4.80;93.00
11399;DHT22;5755;48.116;11.608;2024-03-25T00:31:15;4.80;93.30
11399;DHT22;5755;48.116;11.608;2024-03-25T00:33:41;4.80;93.30
11399;DHT22;5755;48.116;11.608;2024-03-25T00:36:07;4.70;93.60
11399;DHT22;5755;48.116;11.608;2024-03-25T00:38:36;4.60;93.50
11399;DHT22;5755;48.116;11.608;2024-03-25T00:41:01;4.70;93.30
11399;DHT22;5755;48.116;11.608;2024-03-25T00:43:28;4.70;93.40
11399;DHT22;5755;48.116;11.608;2024-03-25T00:45:54;4.70;93.20
11399;DHT22;5755;48.116;11.608;2024-03-25T00:48:22;4.70;93.70
11399;DHT22;5755;48.116;11.608;2024-03-25T00:50:48;4.70;93.30
11399;DHT22;5755;48.116;11.608;2024-03-25T00:53:15;4.60;93.50
11399;DHT22;5755;48.116;11.608;2024-03-25T00:55:42;4.70;93.40
11399;DHT22;5755;48.116;11.608;2024-03-25T00:58:09;4.60;93.60
11399;DHT22;5755;48.116;11.608;2024-03-25T01:00:35;4.50;93.90
11399;DHT22;5755;48.116;11.608;2024-03-25T01:03:02;4.30;94.00
11399;DHT22;5755;48.116;11.608;2024-03-25T01:05:28;4.40;94.00
11399;DHT22;5755;48.116;11.608;2024-03-25T01:07:55;4.30;94.10
11399;DHT22;5755;48.116;11.608;2024-03-25T01:10:21;4.20;94.90
11399;DHT22;5755;48.116;11.608;2024-03-25T01:12:49;4.30;94.90
11399;DHT22;5755;48.116;11.608;2024-03-25T01:15:15;4.30;94.40
11399;DHT22;5755;48.116;11.608;2024-03-25T01:17:42;4.30;94.50
11399;DHT22;5755;48.116;11.608;2024-03-25T01:20:09;4.40;94.20
11399;DHT22;5755;48.116;11.608;2024-03-25T01:22:36;4.30;94.60
11399;DHT22;5755;48.116;11.608;2024-03-25T01:25:02;4.30;95.00
11399;DHT22;5755;48.116;11.608;2024-03-25T01:27:29;4.30;94.90
11399;DHT22;5755;48.116;11.608;2024-03-25T01:29:56;4.40;95.00
11399;DHT22;5755;48.116;11.608;2024-03-25T01:32:23;4.40;94.20
11399;DHT22;5755;48.116;11.608;2024-03-25T01:34:49;4.30;94.20
11399;DHT22;5755;48.116;11.608;2024-03-25T01:37:16;4.20;94.90
11399;DHT22;5755;48.116;11.608;2024-03-25T01:39:42;4.20;94.90
11399;DHT22;5755;48.116;11.608;2024-03-25T01:42:09;4.10;94.90
11399;DHT22;5755;48.116;11.608;2024-03-25T01:44:34;4.10;94.90
11399;DHT22;5755;48.116;11.608;2024-03-25T01:47:04;4.20;94.90
11399;DHT22;5755;48.116;11.608;2024-03-25T01:49:30;4.30;94.60
11399;DHT22;5755;48.116;11.608;2024-03-25T01:51:58;4.30;94.00
11399;DHT22;5755;48.116;11.608;2024-03-25T01:54:24;4.40;93.60
11399;DHT22;5755;48.116;11.608;2024-03-25T01:56:51;4.40;93.60
11399;DHT22;5755;48.116;11.608;2024-03-25T01:59:19;4.30;94.10
11399;DHT22;5755;48.116;11.608;2024-03-25T02:01:46;4.30;94.00
11399;DHT22;5755;48.116;11.608;2024-03-25T02:04:13;4.20;94.00
11399;DHT22;5755;48.116;11.608;2024-03-25T02:06:41;4.30;94.20
11399;DHT22;5755;48.116;11.608;2024-03-25T02:09:09;4.40;93.80
11399;DHT22;5755;48.116;11.608;2024-03-25T02:11:38;4.30;93.70
11399;DHT22;5755;48.116;11.608;2024-03-25T02:14:04;4.30;93.70
11399;DHT22;5755;48.116;11.608;2024-03-25T02:16:31;4.40;93.60
11399;DHT22;5755;48.116;11.608;2024-03-25T02:18:57;4.40;93.60
11399;DHT22;5755;48.116;11.608;2024-03-25T02:21:25;4.50;93.40
11399;DHT22;5755;48.116;11.608;2024-03-25T02:23:53;4.40;92.90
11399;DHT22;5755;48.116;11.608;2024-03-25T02:26:24;4.40;93.70
11399;DHT22;5755;48.116;11.608;2024-03-25T02:28:50;4.40;93.30
11399;DHT22;5755;48.116;11.608;2024-03-25T02:31:18;4.40;93.30
11399;DHT22;5755;48.116;11.608;2024-03-25T02:33:44;4.30;93.60
11399;DHT22;5755;48.116;11.608;2024-03-25T02:36:11;4.30;93.90
11399;DHT22;5755;48.116;11.608;2024-03-25T02:38:37;4.30;93.60
11399;DHT22;5755;48.116;11.608;2024-03-25T02:41:04;4.30;93.30
11399;DHT22;5755;48.116;11.608;2024-03-25T02:43:31;4.30;93.40
11399;DHT22;5755;48.116;11.608;2024-03-25T02:45:58;4.40;93.10
11399;DHT22;5755;48.116;11.608;2024-03-25T02:48:24;4.40;93.40
11399;DHT22;5755;48.116;11.608;2024-03-25T02:50:51;4.30;93.10
11399;DHT22;5755;48.116;11.608;2024-03-25T02:53:17;4.20;93.40
11399;DHT22;5755;48.116;11.608;2024-03-25T02:55:44;4.20;93.60
11399;DHT22;5755;48.116;11.608;2024-03-25T02:58:09;4.40;93.10
11399;DHT22;5755;48.116;11.608;2024-03-25T03:00:38;4.40;93.40
11399;DHT22;5755;48.116;11.608;2024-03-25T03:03:04;4.40;92.80
11399;DHT22;5755;48.116;11.608;2024-03-25T03:05:31;4.40;92.80
11399;DHT22;5755;48.116;11.608;2024-03-25T03:07:58;4.30;93.30
11399;DHT22;5755;48.116;11.608;2024-03-25T03:10:25;4.20;93.40
11399;DHT22;5755;48.116;11.608;2024-03-25T03:12:50;4.20;93.60
11399;DHT22;5755;48.116;11.608;2024-03-25T03:15:17;4.20;93.60
11399;DHT22;5755;48.116;11.608;2024-03-25T03:17:44;4.20;93.50
11399;DHT22;5755;48.116;11.608;2024-03-25T03:20:11;4.30;93.20
11399;DHT22;5755;48.116;11.608;2024-03-25T03:22:37;4.30;93.10
11399;DHT22;5755;48.116;11.608;2024-03-25T03:25:05;4.30;93.20
11399;DHT22;5755;48.116;11.608;2024-03-25T03:27:30;4.20;93.10
11399;DHT22;5755;48.116;11.608;2024-03-25T03:29:57;4.20;93.30
11399;DHT22;5755;48.116;11.608;2024-03-25T03:32:23;4.20;93.80
11399;DHT22;5755;48.116;11.608;2024-03-25T03:34:52;4.40;93.20
11399;DHT22;5755;48.116;11.608;2024-03-25T03:37:17;4.30;92.90
11399;DHT22;5755;48.116;11.608;2024-03-25T03:39:44;4.30;93.60
11399;DHT22;5755;48.116;11.608;2024-03-25T03:42:10;4.30;93.00
11399;DHT22;5755;48.116;11.608;2024-03-25T03:44:37;4.30;92.90
11399;DHT22;5755;48.116;11.608;2024-03-25T03:47:03;4.30;93.10
11399;DHT22;5755;48.116;11.608;2024-03-25T03:49:30;4.20;93.20
11399;DHT22;5755;48.116;11.608;2024-03-25T03:51:57;4.10;93.40
11399;DHT22;5755;48.116;11.608;2024-03-25T03:54:24;4.00;93.50
11399;DHT22;5755;48.116;11.608;2024-03-25T03:56:50;4.00;93.70
11399;DHT22;5755;48.116;11.608;2024-03-25T03:59:17;4.00;93.70
11399;DHT22;5755;48.116;11.608;2024-03-25T04:01:43;3.90;93.50
11399;DHT22;5755;48.116;11.608;2024-03-25T04:04:09;3.90;93.40
11399;DHT22;5755;48.116;11.608;2024-03-25T04:06:35;3.90;93.80
11399;DHT22;5755;48.116;11.608;2024-03-25T04:09:07;3.70;93.60
11399;DHT22;5755;48.116;11.608;2024-03-25T04:11:35;3.80;93.90
11399;DHT22;5755;48.116;11.608;2024-03-25T04:14:02;3.60;94.30
11399;DHT22;5755;48.116;11.608;2024-03-25T04:16:28;3.50;94.40
11399;DHT22;5755;48.116;11.608;2024-03-25T04:18:56;3.50;94.60
11399;DHT22;5755;48.116;11.608;2024-03-25T04:21:22;3.40;94.70
11399;DHT22;5755;48.116;11.608;2024-03-25T04:23:49;3.40;94.70
11399;DHT22;5755;48.116;11.608;2024-03-25T04:26:16;3.40;94.70
11399;DHT22;5755;48.116;11.608;2024-03-25T04:28:43;3.30;94.70
11399;DHT22;5755;48.116;11.608;2024-03-25T04:31:09;3.30;94.70
11399;DHT22;5755;48.116;11.608;2024-03-25T04:33:36;3.20;94.70
11399;DHT22;5755;48.116;11.608;2024-03-25T04:36:02;3.20;94.70
11399;DHT22;5755;48.116;11.608;2024-03-25T04:38:29;3.40;95.20
11399;DHT22;5755;48.116;11.608;2024-03-25T04:40:55;3.40;94.70
11399;DHT22;5755;48.116;11.608;2024-03-25T04:43:22;3.30;95.00
11399;DHT22;5755;48.116;11.608;2024-03-25T04:45:48;3.30;94.70
11399;DHT22;5755;48.116;11.608;2024-03-25T04:48:14;3.20;94.70
11399;DHT22;5755;48.116;11.608;2024-03-25T04:50:40;3.20;94.70
11399;DHT22;5755;48.116;11.608;2024-03-25T04:53:06;3.20;95.00
11399;DHT22;5755;48.116;11.608;2024-03-25T04:55:32;3.40;94.70
11399;DHT22;5755;48.116;11.608;2024-03-25T04:57:58;3.30;94.70
11399;DHT22;5755;48.116;11.608;2024-03-25T05:00:26;3.40;94.60
11399;DHT22;5755;48.116;11.608;2024-03-25T05:02:52;3.40;94.30
11399;DHT22;5755;48.116;11.608;2024-03-25T05:05:18;3.30;94.70
11399;DHT22;5755;48.116;11.608;2024-03-25T05:07:44;3.30;94.40
11399;DHT22;5755;48.116;11.608;2024-03-25T05:10:10;3.30;94.70
11399;DHT22;5755;48.116;11.608;2024-03-25T05:12:36;3.30;94.70
11399;DHT22;5755;48.116;11.608;2024-03-25T05:15:02;3.30;94.30
11399;DHT22;5755;48.116;11.608;2024-03-25T05:17:29;3.30;94.50
11399;DHT22;5755;48.116;11.608;2024-03-25T05:19:55;3.30;94.50
11399;DHT22;5755;48.116;11.608;2024-03-25T05:22:21;3.30;94.70
11399;DHT22;5755;48.116;11.608;2024-03-25T05:24:47;3.20;94.70
11399;DHT22;5755;48.116;11.608;2024-03-25T05:27:13;3.20;94.70
11399;DHT22;5755;48.116;11.608;2024-03-25T05:29:39;3.30;94.70
11399;DHT22;5755;48.116;11.608;2024-03-25T05:32:06;3.40;94.30
11399;DHT22;5755;48.116;11.608;2024-03-25T05:34:33;3.30;94.30
11399;DHT22;5755;48.116;11.608;2024-03-25T05:36:59;3.30;94.40
11399;DHT22;5755;48.116;11.608;2024-03-25T05:39:25;3.30;94.70
11399;DHT22;5755;48.116;11.608;2024-03-25T05:41:51;3.40;94.20
11399;DHT22;5755;48.116;11.608;2024-03-25T05:44:17;3.40;94.10
11399;DHT22;5755;48.116;11.608;2024-03-25T05:46:43;3.30;94.20
11399;DHT22;5755;48.116;11.608;2024-03-25T05:49:09;3.40;94.20
11399;DHT22;5755;48.116;11.608;2024-03-25T05:51:36;3.40;93.70
11399;DHT22;5755;48.116;11.608;2024-03-25T05:54:02;3.50;93.60
11399;DHT22;5755;48.116;11.608;2024-03-25T05:56:28;3.50;93.40
11399;DHT22;5755;48.116;11.608;2024-03-25T05:58:55;3.50;93.50
11399;DHT22;5755;48.116;11.608;2024-03-25T06:01:21;3.50;93.60
11399;DHT22;5755;48.116;11.608;2024-03-25T06:03:47;3.60;93.40
11399;DHT22;5755;48.116;11.608;2024-03-25T06:06:13;3.70;92.90
11399;DHT22;5755;48.116;11.608;2024-03-25T06:08:41;3.70;93.10
11399;DHT22;5755;48.116;11.608;2024-03-25T06:11:07;3.80;92.70
11399;DHT22;5755;48.116;11.608;2024-03-25T06:13:33;3.80;92.70
11399;DHT22;5755;48.116;11.608;2024-03-25T06:15:59;3.90;92.40
11399;DHT22;5755;48.116;11.608;2024-03-25T06:18:25;4.00;92.50
11399;DHT22;5755;48.116;11.608;2024-03-25T06:20:51;4.00;92.20
11399;DHT22;5755;48.116;11.608;2024-03-25T06:23:23;4.00;92.50
11399;DHT22;5755;48.116;11.608;2024-03-25T06:25:52;4.10;92.10
11399;DHT22;5755;48.116;11.608;2024-03-25T06:28:19;4.10;91.80
11399;DHT22;5755;48.116;11.608;2024-03-25T06:30:45;4.20;91.50
11399;DHT22;5755;48.116;11.608;2024-03-25T06:33:29;4.40;91.40
11399;DHT22;5755;48.116;11.608;2024-03-25T06:36:14;4.60;90.90
11399;DHT22;5755;48.116;11.608;2024-03-25T06:38:40;5.00;90.00
11399;DHT22;5755;48.116;11.608;2024-03-25T06:41:07;5.30;87.70
11399;DHT22;5755;48.116;11.608;2024-03-25T06:43:33;5.80;82.80
11399;DHT22;5755;48.116;11.608;2024-03-25T06:45:59;6.00;80.00
11399;DHT22;5755;48.116;11.608;2024-03-25T06:48:25;6.60;77.50
11399;DHT22;5755;48.116;11.608;2024-03-25T06:50:55;7.70;68.20
11399;DHT22;5755;48.116;11.608;2024-03-25T06:53:21;8.60;54.70
11399;DHT22;5755;48.116;11.608;2024-03-25T06:55:54;8.90;46.70
11399;DHT22;5755;48.116;11.608;2024-03-25T06:58:23;8.80;43.90
11399;DHT22;5755;48.116;11.608;2024-03-25T07:00:49;8.60;43.80
11399;DHT22;5755;48.116;11.608;2024-03-25T07:03:15;8.70;45.00
11399;DHT22;5755;48.116;11.608;2024-03-25T07:05:44;8.70;45.50
11399;DHT22;5755;48.116;11.608;2024-03-25T07:08:10;8.70;47.30
11399;DHT22;5755;48.116;11.608;2024-03-25T07:10:36;8.60;44.80
11399;DHT22;5755;48.116;11.608;2024-03-25T07:13:03;8.70;43.50
11399;DHT22;5755;48.116;11.608;2024-03-25T07:15:30;8.70;44.90
11399;DHT22;5755;48.116;11.608;2024-03-25T07:17:56;8.70;45.10
11399;DHT22;5755;48.116;11.608;2024-03-25T07:20:22;8.60;44.60
11399;DHT22;5755;48.116;11.608;2024-03-25T07:22:48;8.70;45.70
11399;DHT22;5755;48.116;11.608;2024-03-25T07:25:14;8.70;43.10
11399;DHT22;5755;48.116;11.608;2024-03-25T07:27:40;8.70;42.10
11399;DHT22;5755;48.116;11.608;2024-03-25T07:30:07;8.80;41.30
11399;DHT22;5755;48.116;11.608;2024-03-25T07:32:34;8.70;42.50
11399;DHT22;5755;48.116;11.608;2024-03-25T07:35:00;8.60;40.10
11399;DHT22;5755;48.116;11.608;2024-03-25T07:37:26;8.30;39.70
11399;DHT22;5755;48.116;11.608;2024-03-25T07:39:53;8.00;43.20
11399;DHT22;5755;48.116;11.608;2024-03-25T07:42:19;8.10;45.60
11399;DHT22;5755;48.116;11.608;2024-03-25T07:44:45;8.20;43.00
11399;DHT22;5755;48.116;11.608;2024-03-25T07:47:11;8.40;42.80
11399;DHT22;5755;48.116;11.608;2024-03-25T07:49:38;8.50;44.30
11399;DHT22;5755;48.116;11.608;2024-03-25T07:52:05;8.80;39.80
11399;DHT22;5755;48.116;11.608;2024-03-25T07:54:31;9.30;38.50
11399;DHT22;5755;48.116;11.608;2024-03-25T07:56:57;9.70;34.90
11399;DHT22;5755;48.116;11.608;2024-03-25T07:59:23;9.80;34.10
11399;DHT22;5755;48.116;11.608;2024-03-25T08:01:49;10.10;33.30
11399;DHT22;5755;48.116;11.608;2024-03-25T08:04:15;10.60;30.00
11399;DHT22;5755;48.116;11.608;2024-03-25T08:06:43;10.60;28.70
11399;DHT22;5755;48.116;11.608;2024-03-25T08:09:09;10.40;26.70
11399;DHT22;5755;48.116;11.608;2024-03-25T08:11:35;10.40;29.60
11399;DHT22;5755;48.116;11.608;2024-03-25T08:14:01;10.90;24.50
11399;DHT22;5755;48.116;11.608;2024-03-25T08:16:27;10.90;24.40
11399;DHT22;5755;48.116;11.608;2024-03-25T08:18:53;10.80;24.40
11399;DHT22;5755;48.116;11.608;2024-03-25T08:21:19;10.60;24.30
11399;DHT22;5755;48.116;11.608;2024-03-25T08:23:47;10.80;24.30
11399;DHT22;5755;48.116;11.608;2024-03-25T08:26:13;11.20;24.60
11399;DHT22;5755;48.116;11.608;2024-03-25T08:28:39;11.60;22.60
11399;DHT22;5755;48.116;11.608;2024-03-25T08:31:05;11.30;21.90
11399;DHT22;5755;48.116;11.608;2024-03-25T08:33:31;10.70;24.30
11399;DHT22;5755;48.116;11.608;2024-03-25T08:35:57;10.30;23.90
11399;DHT22;5755;48.116;11.608;2024-03-25T08:38:23;10.20;26.40
11399;DHT22;5755;48.116;11.608;2024-03-25T08:40:51;10.70;24.20
11399;DHT22;5755;48.116;11.608;2024-03-25T08:43:17;10.70;24.20
11399;DHT22;5755;48.116;11.608;2024-03-25T08:45:44;10.70;24.20
11399;DHT22;5755;48.116;11.608;2024-03-25T08:48:10;10.80;23.50
11399;DHT22;5755;48.116;11.608;2024-03-25T08:50:35;10.60;20.30
11399;DHT22;5755;48.116;11.608;2024-03-25T08:53:03;10.00;23.60
11399;DHT22;5755;48.116;11.608;2024-03-25T08:55:29;10.10;23.70
11399;DHT22;5755;48.116;11.608;2024-03-25T08:57:56;10.60;24.20
11399;DHT22;5755;48.116;11.608;2024-03-25T09:00:24;11.00;23.40
11399;DHT22;5755;48.116;11.608;2024-03-25T09:02:50;11.20;20.00
11399;DHT22;5755;48.116;11.608;2024-03-25T09:05:16;11.20;19.40
11399;DHT22;5755;48.116;11.608;2024-03-25T09:07:42;11.30;20.00
11399;DHT22;5755;48.116;11.608;2024-03-25T09:10:09;11.90;19.80
11399;DHT22;5755;48.116;11.608;2024-03-25T09:12:53;12.60;18.70
11399;DHT22;5755;48.116;11.608;2024-03-25T09:15:20;13.60;15.60
11399;DHT22;5755;48.116;11.608;2024-03-25T09:17:46;13.40;10.10
11399;DHT22;5755;48.116;11.608;2024-03-25T09:20:12;14.00;9.20
11399;DHT22;5755;48.116;11.608;2024-03-25T09:22:42;14.30;10.70
11399;DHT22;5755;48.116;11.608;2024-03-25T09:25:08;14.90;9.80
11399;DHT22;5755;48.116;11.608;2024-03-25T09:27:34;14.80;8.60
11399;DHT22;5755;48.116;11.608;2024-03-25T09:30:00;14.30;9.60
11399;DHT22;5755;48.116;11.608;2024-03-25T09:32:27;14.70;8.60
11399;DHT22;5755;48.116;11.608;2024-03-25T09:34:53;15.30;8.80
11399;DHT22;5755;48.116;11.608;2024-03-25T09:37:19;15.30;8.10
11399;DHT22;5755;48.116;11.608;2024-03-25T09:39:45;15.40;8.00
11399;DHT22;5755;48.116;11.608;2024-03-25T09:42:14;15.30;7.90
11399;DHT22;5755;48.116;11.608;2024-03-25T09:44:40;16.60;7.50
11399;DHT22;5755;48.116;11.608;2024-03-25T09:47:07;16.30;6.60
11399;DHT22;5755;48.116;11.608;2024-03-25T09:49:35;16.60;6.70
11399;DHT22;5755;48.116;11.608;2024-03-25T09:52:02;17.40;6.20
11399;DHT22;5755;48.116;11.608;2024-03-25T09:54:29;18.30;4.70
11399;DHT22;5755;48.116;11.608;2024-03-25T09:56:55;18.30;4.40
11399;DHT22;5755;48.116;11.608;2024-03-25T09:59:21;17.70;5.90
11399;DHT22;5755;48.116;11.608;2024-03-25T10:01:48;17.20;6.70
11399;DHT22;5755;48.116;11.608;2024-03-25T10:04:14;17.60;6.10
11399;DHT22;5755;48.116;11.608;2024-03-25T10:06:41;17.70;4.00
11399;DHT22;5755;48.116;11.608;2024-03-25T10:09:07;17.30;5.10
11399;DHT22;5755;48.116;11.608;2024-03-25T10:11:34;16.20;4.90
11399;DHT22;5755;48.116;11.608;2024-03-25T10:14:00;15.10;6.20
11399;DHT22;5755;48.116;11.608;2024-03-25T10:16:26;14.60;7.80
11399;DHT22;5755;48.116;11.608;2024-03-25T10:18:52;15.10;7.20
11399;DHT22;5755;48.116;11.608;2024-03-25T10:21:20;14.50;7.40
11399;DHT22;5755;48.116;11.608;2024-03-25T10:23:48;13.70;6.90
11399;DHT22;5755;48.116;11.608;2024-03-25T10:26:27;13.70;7.30
11399;DHT22;5755;48.116;11.608;2024-03-25T10:29:03;13.80;7.00
11399;DHT22;5755;48.116;11.608;2024-03-25T10:31:29;13.50;8.30
11399;DHT22;5755;48.116;11.608;2024-03-25T10:33:55;14.60;5.80
11399;DHT22;5755;48.116;11.608;2024-03-25T10:36:22;14.60;7.50
11399;DHT22;5755;48.116;11.608;2024-03-25T10:38:53;14.50;7.70
11399;DHT22;5755;48.116;11.608;2024-03-25T10:41:21;14.90;7.40
11399;DHT22;5755;48.116;11.608;2024-03-25T10:43:47;15.20;7.90
11399;DHT22;5755;48.116;11.608;2024-03-25T10:46:18;16.20;4.80
11399;DHT22;5755;48.116;11.608;2024-03-25T10:48:52;16.00;8.10
11399;DHT22;5755;48.116;11.608;2024-03-25T10:51:21;16.00;4.80
11399;DHT22;5755;48.116;11.608;2024-03-25T10:53:51;16.60;6.40
11399;DHT22;5755;48.116;11.608;2024-03-25T10:56:20;17.40;4.00
11399;DHT22;5755;48.116;11.608;2024-03-25T10:58:47;16.80;5.80
11399;DHT22;5755;48.116;11.608;2024-03-25T11:01:15;16.20;4.50
11399;DHT22;5755;48.116;11.608;2024-03-25T11:03:42;16.00;6.70
11399;DHT22;5755;48.116;11.608;2024-03-25T11:06:08;14.60;4.90
11399;DHT22;5755;48.116;11.608;2024-03-25T11:08:34;13.40;6.70
11399;DHT22;5755;48.116;11.608;2024-03-25T11:11:02;13.80;8.80
11399;DHT22;5755;48.116;11.608;2024-03-25T11:13:28;14.10;7.10
11399;DHT22;5755;48.116;11.608;2024-03-25T11:15:54;14.10;10.20
11399;DHT22;5755;48.116;11.608;2024-03-25T11:18:22;13.50;6.80
11399;DHT22;5755;48.116;11.608;2024-03-25T11:20:59;12.70;8.40
11399;DHT22;5755;48.116;11.608;2024-03-25T11:23:25;12.10;8.50
11399;DHT22;5755;48.116;11.608;2024-03-25T11:25:55;11.80;9.80
11399;DHT22;5755;48.116;11.608;2024-03-25T11:28:28;12.20;10.70
11399;DHT22;5755;48.116;11.608;2024-03-25T11:30:55;12.70;9.40
11399;DHT22;5755;48.116;11.608;2024-03-25T11:33:22;12.70;7.20
11399;DHT22;5755;48.116;11.608;2024-03-25T11:35:49;12.20;7.60
11399;DHT22;5755;48.116;11.608;2024-03-25T11:38:15;12.60;6.20
11399;DHT22;5755;48.116;11.608;2024-03-25T11:40:42;12.90;6.30
11399;DHT22;5755;48.116;11.608;2024-03-25T11:43:09;12.80;8.20
11399;DHT22;5755;48.116;11.608;2024-03-25T11:45:37;12.80;7.10
11399;DHT22;5755;48.116;11.608;2024-03-25T11:48:05;12.90;9.00
11399;DHT22;5755;48.116;11.608;2024-03-25T11:50:34;12.70;7.00
11399;DHT22;5755;48.116;11.608;2024-03-25T11:53:04;12.00;5.80
11399;DHT22;5755;48.116;11.608;2024-03-25T11:55:30;11.70;8.20
11399;DHT22;5755;48.116;11.608;2024-03-25T11:57:56;12.00;9.40
11399;DHT22;5755;48.116;11.608;2024-03-25T12:00:23;12.00;6.80
11399;DHT22;5755;48.116;11.608;2024-03-25T12:03:16;11.80;8.60
11399;DHT22;5755;48.116;11.608;2024-03-25T12:05:42;11.60;9.90
11399;DHT22;5755;48.116;11.608;2024-03-25T12:08:09;11.30;10.10
11399;DHT22;5755;48.116;11.608;2024-03-25T12:10:36;11.40;8.70
11399;DHT22;5755;48.116;11.608;2024-03-25T12:23:47;10.70;10.50
11399;DHT22;5755;48.116;11.608;2024-03-25T12:26:13;11.00;11.40
11399;DHT22;5755;48.116;11.608;2024-03-25T12:31:15;11.40;6.80
11399;DHT22;5755;48.116;11.608;2024-03-25T12:36:17;11.80;8.40
11399;DHT22;5755;48.116;11.608;2024-03-25T13:12:24;11.90;5.70
11399;DHT22;5755;48.116;11.608;2024-03-25T13:14:50;12.00;5.80
11399;DHT22;5755;48.116;11.608;2024-03-25T13:17:16;12.10;5.90
11399;DHT22;5755;48.116;11.608;2024-03-25T13:19:42;12.30;6.00
11399;DHT22;5755;48.116;11.608;2024-03-25T13:22:15;12.40;6.10
11399;DHT22;5755;48.116;11.608;2024-03-25T13:24:42;12.40;6.10
11399;DHT22;5755;48.116;11.608;2024-03-25T13:27:09;12.00;5.80
11399;DHT22;5755;48.116;11.608;2024-03-25T13:29:41;11.70;5.60
11399;DHT22;5755;48.116;11.608;2024-03-25T13:32:08;11.60;6.50
